Time;durP1;ratioP1;P1;durP2;ratioP2;P2;SDS_P1;SDS_P2;PMS_P1;PMS_P2;Temp;Humidity;BMP_temperature;BMP_pressure;BME280_temperature;BME280_humidity;BME280_pressure;Samples;Min_cycle;Max_cycle;Signal;HPM_P1;HPM_P2
2022/01/14 00:01:28;;;;;;;72.10;34.50;;;;;;;0.42;71.50;101140.03;5202817;28;20100;-69
2022/01/14 00:04:19;;;;;;;76.18;34.38;;;;;;;0.37;70.97;101136.66;5205839;28;20124;-69
2022/01/14 00:07:10;;;;;;;68.55;31.55;;;;;;;0.50;70.71;101155.56;5190974;28;20088;-69
2022/01/14 00:10:01;;;;;;;70.32;33.22;;;;;;;0.46;69.91;101152.16;5207416;28;20069;-69
2022/01/14 00:12:54;;;;;;;75.93;35.28;;;;;;;0.45;70.22;101152.16;5204839;28;20077;-69
2022/01/14 00:15:44;;;;;;;75.25;35.15;;;;;;;0.41;69.71;101156.59;5204660;28;20411;-69
2022/01/14 00:18:35;;;;;;;86.07;35.42;;;;;;;0.38;71.13;101154.03;5221951;28;20095;-69
2022/01/14 00:21:27;;;;;;;77.70;33.35;;;;;;;0.33;71.75;101149.75;5213485;28;20057;-69
2022/01/14 00:33:28;;;;;;;64.63;30.15;;;;;;;0.45;71.00;101137.38;5198538;28;20041;-69
2022/01/14 00:36:17;;;;;;;58.90;28.55;;;;;;;0.55;71.09;101140.66;5204730;28;20045;-69
2022/01/14 00:39:09;;;;;;;70.05;30.77;;;;;;;0.44;71.13;101137.41;5207138;28;20195;-69
2022/01/14 00:42:00;;;;;;;57.03;26.65;;;;;;;0.46;71.59;101146.94;5204450;28;20633;-69
2022/01/14 00:44:50;;;;;;;56.55;27.15;;;;;;;0.37;71.08;101126.22;5204903;28;20107;-69
2022/01/14 00:47:40;;;;;;;59.03;25.50;;;;;;;0.38;71.40;101127.94;5203473;28;20054;-69
2022/01/14 00:50:30;;;;;;;54.55;25.65;;;;;;;0.41;71.78;101127.88;5203349;28;20051;-69
2022/01/14 00:53:21;;;;;;;56.17;26.13;;;;;;;0.46;71.37;101140.81;5208026;28;20094;-69
2022/01/14 00:56:31;;;;;;;52.75;24.88;;;;;;;0.41;71.51;101148.75;5204299;28;20129;-69
2022/01/14 00:59:21;;;;;;;51.75;25.15;;;;;;;0.33;70.96;101152.38;5208973;28;20048;-69
2022/01/14 01:02:11;;;;;;;48.72;24.77;;;;;;;0.25;71.22;101141.22;5205775;28;21131;-69
2022/01/14 01:05:02;;;;;;;54.65;25.33;;;;;;;0.28;70.53;101149.00;5204801;28;20396;-69
2022/01/14 01:08:03;;;;;;;57.38;25.13;;;;;;;0.23;71.47;101142.13;5204167;28;20072;-69
2022/01/14 01:10:53;;;;;;;58.08;25.70;;;;;;;0.33;71.67;101145.44;5216560;28;20526;-69
2022/01/14 01:13:49;;;;;;;58.50;25.40;;;;;;;0.31;70.68;101134.16;5204553;28;20180;-69
2022/01/14 01:16:39;;;;;;;52.65;24.33;;;;;;;0.26;71.17;101140.31;5188890;28;20095;-69
2022/01/14 01:19:30;;;;;;;56.60;26.00;;;;;;;0.37;70.73;101135.78;5212351;28;20056;-69
2022/01/14 01:22:20;;;;;;;60.40;26.40;;;;;;;0.36;71.02;101139.28;5209674;28;20103;-69
2022/01/14 01:25:29;;;;;;;64.70;26.08;;;;;;;0.27;71.11;101131.63;5208060;28;20088;-69
2022/01/14 01:28:19;;;;;;;;;;;;;;;0.56;71.31;101136.31;5204519;28;20053;-69
2022/01/14 01:31:35;;;;;;;57.50;27.35;;;;;;;0.99;69.89;101143.31;5192946;28;20017;-69
2022/01/14 01:34:23;;;;;;;64.43;29.33;;;;;;;1.08;70.38;101140.53;5202901;28;20550;-69
2022/01/14 01:37:14;;;;;;;;;;;;;;;1.01;70.50;101136.31;5197268;28;20058;-69
2022/01/14 01:40:04;;;;;;;64.78;27.60;;;;;;;0.83;71.47;101134.91;5210816;28;19928;-69
2022/01/14 01:42:56;;;;;;;64.85;27.38;;;;;;;0.91;70.75;101130.41;5203715;28;20084;-69
2022/01/14 01:45:49;;;;;;;58.95;26.15;;;;;;;0.99;71.02;101125.88;5203246;28;20185;-69
2022/01/14 01:48:39;;;;;;;51.80;22.07;;;;;;;0.98;70.99;101133.78;5202695;28;20045;-69
2022/01/14 01:51:29;;;;;;;59.70;26.10;;;;;;;0.81;71.14;101134.09;5197904;28;20056;-69
2022/01/14 01:54:21;;;;;;;64.65;26.13;;;;;;;0.88;71.52;101136.56;5208063;28;20057;-69
2022/01/14 01:57:11;;;;;;;60.65;26.58;;;;;;;0.84;71.21;101115.78;5201320;28;20107;-69
2022/01/14 02:00:05;;;;;;;57.55;25.13;;;;;;;0.74;71.08;101122.91;5210909;28;20068;-69
2022/01/14 02:03:05;;;;;;;57.67;25.73;;;;;;;0.79;70.80;101128.91;5203407;28;20045;-70
2022/01/14 02:05:55;;;;;;;61.90;26.17;;;;;;;0.71;70.65;101115.13;5203338;28;20571;-69
2022/01/14 02:08:46;;;;;;;55.10;24.10;;;;;;;0.75;71.03;101122.03;5204085;28;20148;-69
2022/01/14 02:11:36;;;;;;;57.78;24.90;;;;;;;0.81;71.08;101126.28;5209599;28;20049;-69
2022/01/14 02:17:33;;;;;;;58.72;25.73;;;;;;;0.69;70.85;101120.38;5202892;28;20187;-69
2022/01/14 02:23:33;;;;;;;51.25;22.60;;;;;;;0.82;71.19;101107.94;5202893;28;20199;-68
2022/01/14 02:26:23;;;;;;;58.90;24.42;;;;;;;0.61;71.73;101093.56;5208359;28;20681;-70
2022/01/14 02:29:14;;;;;;;60.45;26.65;;;;;;;1.19;70.09;101096.72;5208899;28;20446;-69
2022/01/14 02:32:04;;;;;;;62.13;25.65;;;;;;;0.82;71.50;101094.03;5205940;28;20118;-69
2022/01/14 02:34:54;;;;;;;57.97;25.65;;;;;;;1.20;70.53;101093.25;5206601;28;20521;-69
2022/01/14 02:38:05;;;;;;;62.88;24.83;;;;;;;0.99;70.44;101068.41;5202293;28;20064;-69
2022/01/14 02:40:56;;;;;;;52.58;24.65;;;;;;;1.11;70.07;101077.75;5209552;28;20522;-71
2022/01/14 02:43:46;;;;;;;58.50;25.63;;;;;;;1.21;70.78;101065.38;5203240;28;20045;-69
2022/01/14 02:46:42;;;;;;;52.40;24.20;;;;;;;0.98;70.41;101048.44;5202649;28;20179;-69
2022/01/14 02:49:34;;;;;;;56.58;24.80;;;;;;;1.06;71.10;101077.88;5209681;28;20526;-69
2022/01/14 02:55:35;;;;;;;55.30;24.20;;;;;;;0.94;71.21;101065.06;5205207;28;20052;-68
2022/01/14 02:58:32;;;;;;;54.22;24.25;;;;;;;1.16;70.16;101070.69;5194443;28;20409;-70
2022/01/14 03:01:24;;;;;;;58.50;23.60;;;;;;;1.13;70.71;101058.56;5207095;28;20041;-68
2022/01/14 03:04:16;;;;;;;51.83;25.27;;;;;;;1.14;70.50;101062.03;5201993;28;20034;-67
2022/01/14 03:07:08;;;;;;;53.60;25.00;;;;;;;1.05;70.25;101049.16;5200798;28;20115;-68
2022/01/14 03:09:58;;;;;;;53.90;25.65;;;;;;;0.73;70.40;101050.72;5214199;28;20045;-69
2022/01/14 03:12:49;;;;;;;51.03;24.65;;;;;;;0.67;70.26;101056.91;5202259;28;20049;-67
2022/01/14 03:15:39;;;;;;;56.13;25.60;;;;;;;0.66;69.42;101054.31;5203639;28;20159;-68
2022/01/14 03:18:45;;;;;;;52.92;25.30;;;;;;;0.58;70.02;101062.31;5187335;28;20103;-69
2022/01/14 03:21:40;;;;;;;51.83;24.60;;;;;;;0.47;70.00;101054.69;5195570;28;20139;-68
2022/01/14 03:25:47;;;;;;;50.97;23.88;;;;;;;0.42;69.49;101055.66;5186452;28;20037;-70
2022/01/14 03:27:43;;;;;;;47.40;22.15;;;;;;;0.35;70.19;101054.91;5201885;28;20041;-67
2022/01/14 03:30:34;;;;;;;49.95;22.55;;;;;;;0.23;70.45;101042.09;5195346;22;20435;-83
2022/01/14 03:33:24;;;;;;;54.25;24.40;;;;;;;-0.01;71.13;101051.22;5190281;28;20082;-82
2022/01/14 03:36:14;;;;;;;50.42;23.48;;;;;;;0.09;70.61;101033.66;5152344;28;20094;-82
2022/01/14 03:39:05;;;;;;;46.65;23.17;;;;;;;0.25;70.15;101053.38;5156425;28;20090;-83
2022/01/14 03:41:55;;;;;;;48.55;22.67;;;;;;;0.12;70.33;101039.69;5164151;28;20055;-82
2022/01/14 03:44:45;;;;;;;50.15;23.75;;;;;;;0.19;70.61;101051.72;5138763;28;20074;-83
2022/01/14 03:47:35;;;;;;;52.92;24.15;;;;;;;0.03;70.13;101028.53;5164782;28;20106;-82
2022/01/14 03:50:27;;;;;;;49.85;23.63;;;;;;;0.10;70.65;101040.59;5156629;28;20054;-83
2022/01/14 03:53:18;;;;;;;48.15;23.15;;;;;;;0.15;69.36;101047.44;5138071;29;20134;-83
2022/01/14 03:56:08;;;;;;;54.92;23.80;;;;;;;0.01;70.47;101032.94;5130504;28;20058;-82
2022/01/14 03:59:03;;;;;;;55.42;24.27;;;;;;;0.09;70.34;101047.56;5127668;28;20118;-83
2022/01/14 04:01:53;;;;;;;48.72;24.63;;;;;;;-0.07;70.79;101022.63;5156498;28;20456;-82
2022/01/14 04:04:43;;;;;;;55.35;25.30;;;;;;;0.04;70.17;101022.47;5165178;28;20438;-83
2022/01/14 04:07:33;;;;;;;53.30;24.75;;;;;;;-0.13;70.36;101012.31;5156879;28;20043;-81
2022/01/14 04:10:25;;;;;;;54.83;24.25;;;;;;;0.02;70.36;101019.00;5142077;28;20054;-81
2022/01/14 04:13:20;;;;;;;57.20;25.83;;;;;;;0.07;70.25;101017.19;5143155;28;20047;-81
2022/01/14 04:16:10;;;;;;;54.38;26.10;;;;;;;0.03;70.60;101021.56;5142221;28;20078;-82
2022/01/14 04:19:01;;;;;;;58.00;26.02;;;;;;;-0.02;70.26;101019.06;5138570;28;20054;-82
2022/01/14 04:21:51;;;;;;;55.20;25.55;;;;;;;-0.05;70.08;101023.47;5142074;28;20145;-83
2022/01/14 04:24:42;;;;;;;53.38;24.95;;;;;;;-0.16;70.43;101010.63;5153144;28;20106;-81
2022/01/14 04:27:32;;;;;;;59.55;25.88;;;;;;;-0.07;70.55;101007.84;5147182;28;20074;-83
2022/01/14 04:30:23;;;;;;;54.60;25.42;;;;;;;-0.12;69.86;101007.09;5157468;28;20053;-83
2022/01/14 04:33:14;;;;;;;59.20;24.77;;;;;;;-0.15;70.70;101012.34;5156872;28;20078;-83
2022/01/14 04:36:05;;;;;;;57.25;25.58;;;;;;;-0.12;70.71;101022.72;5147519;28;20050;-82
2022/01/14 04:38:55;;;;;;;61.95;26.27;;;;;;;0.06;69.22;101012.84;5133022;28;20062;-82
2022/01/14 04:41:46;;;;;;;54.13;25.85;;;;;;;-0.17;70.73;100997.59;5150370;28;20061;-83
2022/01/14 04:44:37;;;;;;;68.60;26.40;;;;;;;-0.08;70.41;101013.94;5135491;29;20053;-82
2022/01/14 04:47:44;;;;;;;56.47;26.35;;;;;;;-0.35;70.32;100975.34;5139255;28;20105;-83
2022/01/14 04:50:35;;;;;;;52.15;23.95;;;;;;;-0.30;70.85;101002.16;5144420;28;20045;-83
2022/01/14 04:53:26;;;;;;;51.92;24.38;;;;;;;-0.38;69.94;100980.59;5157477;28;20532;-82
2022/01/14 04:56:16;;;;;;;59.65;26.52;;;;;;;-0.29;69.68;100998.69;5137291;29;20134;-82
2022/01/14 04:59:06;;;;;;;52.50;25.60;;;;;;;-0.45;70.19;100986.81;5143136;28;20505;-82
2022/01/14 05:01:58;;;;;;;53.85;25.40;;;;;;;-0.49;70.39;100979.03;5138281;28;20050;-82
2022/01/14 05:04:48;;;;;;;62.40;27.17;;;;;;;-0.41;70.54;100988.47;5154983;28;20137;-82
2022/01/14 05:07:40;;;;;;;58.17;27.05;;;;;;;-0.45;70.92;100989.41;5128619;28;20069;-83
2022/01/14 05:13:23;;;;;;;57.15;25.27;;;;;;;-0.48;70.04;100999.00;5138369;28;20045;-82
2022/01/14 05:16:14;;;;;;;51.03;24.17;;;;;;;-0.51;70.68;101001.66;5126941;28;20501;-82
2022/01/14 05:19:04;;;;;;;58.90;25.40;;;;;;;-0.59;70.40;101006.13;5140676;28;20121;-82
2022/01/14 05:21:54;;;;;;;61.60;27.27;;;;;;;-0.59;70.67;101000.91;5139984;28;20050;-82
2022/01/14 05:24:45;;;;;;;56.75;27.10;;;;;;;-0.60;70.48;101003.53;5131412;28;20078;-83
2022/01/14 05:27:36;;;;;;;50.17;24.77;;;;;;;-0.56;70.08;101016.50;5151423;28;20065;-81
2022/01/14 05:30:26;;;;;;;57.80;25.08;;;;;;;-0.63;70.05;100998.38;5148543;28;20115;-81
2022/01/14 05:33:17;;;;;;;60.03;26.25;;;;;;;-0.39;70.32;101018.84;5149162;28;20528;-81
2022/01/14 05:36:07;;;;;;;59.47;25.30;;;;;;;-0.50;70.53;101007.72;5131777;28;20541;-81
2022/01/14 05:38:58;;;;;;;55.63;26.42;;;;;;;-0.51;70.62;100995.56;5135292;28;20138;-82
2022/01/14 05:41:48;;;;;;;57.25;26.00;;;;;;;-0.55;70.46;101001.72;5139818;28;20485;-83
2022/01/14 05:44:38;;;;;;;60.33;27.35;;;;;;;-0.59;71.14;100981.81;5132332;29;20050;-82
2022/01/14 05:47:28;;;;;;;63.38;26.88;;;;;;;-0.61;70.91;100971.41;5134478;28;20051;-82
2022/01/14 05:50:21;;;;;;;53.85;24.35;;;;;;;-0.65;70.06;100979.31;5162909;28;20102;-81
2022/01/14 05:53:11;;;;;;;59.83;25.83;;;;;;;-0.64;70.30;100988.84;5166734;28;20055;-83
2022/01/14 05:56:02;;;;;;;56.25;25.27;;;;;;;-0.64;70.40;100987.09;5146941;28;20074;-83
2022/01/14 05:58:52;;;;;;;56.40;25.48;;;;;;;-0.51;70.37;100993.81;5149249;28;20054;-82
2022/01/14 06:01:43;;;;;;;58.50;24.40;;;;;;;-0.76;69.89;100956.91;5137447;28;20058;-82
2022/01/14 06:04:33;;;;;;;55.05;25.02;;;;;;;-0.67;69.74;100971.50;5126181;28;20118;-82
2022/01/14 06:07:24;;;;;;;59.35;27.02;;;;;;;-0.62;70.99;100974.91;5155029;28;20054;-82
2022/01/14 06:10:14;;;;;;;58.40;26.33;;;;;;;-0.64;70.02;100955.81;5162205;28;20057;-83
2022/01/14 06:13:05;;;;;;;62.30;27.05;;;;;;;-0.66;69.63;100957.63;5145113;28;20049;-84
2022/01/14 06:15:55;;;;;;;59.75;26.85;;;;;;;-0.66;70.30;100956.72;5146191;28;20437;-84
2022/01/14 06:18:45;;;;;;;60.55;28.33;;;;;;;-0.48;70.75;100975.53;5127841;28;20047;-82
2022/01/14 06:21:36;;;;;;;58.95;26.08;;;;;;;-0.51;70.68;100962.56;5141174;28;20051;-83
2022/01/14 06:24:26;;;;;;;65.07;26.65;;;;;;;-0.44;70.76;100967.66;5136915;28;20057;-83
2022/01/14 06:27:17;;;;;;;65.20;27.88;;;;;;;-0.45;70.99;100973.78;5138130;28;20057;-82
2022/01/14 06:30:09;;;;;;;60.33;26.88;;;;;;;-0.53;70.76;100969.56;5120910;29;20123;-84
2022/01/14 06:32:59;;;;;;;65.20;27.35;;;;;;;-0.76;70.80;100932.59;5141700;28;20113;-83
2022/01/14 06:35:49;;;;;;;64.57;26.30;;;;;;;-0.67;70.25;100950.66;5142182;28;20058;-84
2022/01/14 06:38:40;;;;;;;57.38;26.83;;;;;;;-0.73;70.62;100962.06;5136955;28;20061;-82
2022/01/14 06:41:30;;;;;;;60.67;27.63;;;;;;;-0.65;71.02;100987.13;5149497;28;20559;-82
2022/01/14 06:44:20;;;;;;;69.00;31.65;;;;;;;-0.80;73.42;100980.41;5144430;28;20053;-81
2022/01/14 06:47:10;;;;;;;63.72;29.33;;;;;;;-0.44;71.73;100978.09;5133744;28;20050;-81
2022/01/14 06:50:01;;;;;;;62.80;29.17;;;;;;;-0.51;71.84;100996.44;5137959;28;20102;-81
2022/01/14 06:52:52;;;;;;;67.65;28.95;;;;;;;-0.42;70.69;101007.59;5122894;28;20106;-80
2022/01/14 06:55:43;;;;;;;63.67;28.95;;;;;;;-0.70;70.47;100974.16;5139339;28;20047;-80
2022/01/14 06:58:33;;;;;;;61.42;28.10;;;;;;;-0.59;70.04;101015.69;5139745;28;20103;-80
2022/01/14 07:01:23;;;;;;;59.35;27.08;;;;;;;-0.64;71.04;101020.97;5132920;28;20515;-80
2022/01/14 07:04:14;;;;;;;60.90;27.73;;;;;;;-0.69;70.86;101020.19;5153060;28;20058;-81
2022/01/14 07:07:04;;;;;;;67.28;27.73;;;;;;;-0.78;71.12;101015.09;5150207;28;20057;-80
2022/01/14 07:09:57;;;;;;;56.95;27.75;;;;;;;-0.80;70.31;101020.31;5139688;28;20050;-81
2022/01/14 07:12:48;;;;;;;61.00;27.80;;;;;;;-0.72;70.68;101028.03;5153471;28;20133;-81
2022/01/14 07:15:38;;;;;;;62.63;27.80;;;;;;;-0.75;70.77;101020.28;5137262;28;20050;-81
2022/01/14 07:18:28;;;;;;;69.43;28.17;;;;;;;-0.64;70.82;101023.56;5134536;28;20053;-80
2022/01/14 07:21:18;;;;;;;63.60;28.83;;;;;;;-0.47;70.93;101021.56;5152260;28;20078;-80
2022/01/14 07:24:10;;;;;;;72.10;29.63;;;;;;;-0.45;70.72;101039.78;5119377;28;20122;-80
2022/01/14 07:27:00;;;;;;;66.57;30.23;;;;;;;-0.39;69.96;101033.63;5138827;28;20111;-80
2022/01/14 07:29:50;;;;;;;62.35;27.27;;;;;;;-0.45;70.81;101037.19;5154502;28;20050;-80
2022/01/14 07:32:41;;;;;;;74.35;30.13;;;;;;;-0.53;70.52;101034.72;5134602;29;20055;-80
2022/01/14 07:35:31;;;;;;;61.78;28.05;;;;;;;-0.68;70.56;101029.72;5167600;28;20042;-80
2022/01/14 07:38:22;;;;;;;54.65;26.60;;;;;;;-0.65;70.89;101036.63;5156364;28;20121;-81
2022/01/14 07:41:12;;;;;;;62.75;27.13;;;;;;;-0.47;70.83;101047.59;5152436;28;20134;-79
2022/01/14 07:44:04;;;;;;;57.55;26.20;;;;;;;-0.62;71.05;101032.22;5135778;29;20049;-79
2022/01/14 07:46:54;;;;;;;61.38;27.50;;;;;;;-0.67;71.03;101028.81;5137840;28;20053;-80
2022/01/14 07:49:44;;;;;;;56.35;26.23;;;;;;;-0.54;70.70;101035.56;5141067;28;20122;-80
2022/01/14 07:52:34;;;;;;;59.03;26.95;;;;;;;-0.68;71.00;101016.69;5141702;28;20058;-80
2022/01/14 07:55:25;;;;;;;65.28;27.77;;;;;;;-0.54;70.98;101011.25;5155530;28;20129;-80
2022/01/14 07:58:15;;;;;;;60.38;27.17;;;;;;;-0.40;70.78;101034.50;5150657;28;20050;-80
2022/01/14 08:01:06;;;;;;;69.10;29.45;;;;;;;-0.36;70.18;101034.44;5135105;29;20109;-80
2022/01/14 08:03:56;;;;;;;66.43;30.00;;;;;;;-0.40;71.20;101009.28;5135953;28;21751;-79
2022/01/14 08:06:49;;;;;;;74.53;31.58;;;;;;;-0.35;70.41;100996.19;5139392;28;20047;-80
2022/01/14 08:09:42;;;;;;;89.35;36.92;;;;;;;-0.17;70.59;101034.97;5130734;28;20055;-81
2022/01/14 08:12:32;;;;;;;92.18;36.67;;;;;;;-0.19;71.12;101035.91;5155187;28;20086;-81
2022/01/14 08:15:23;;;;;;;68.55;31.88;;;;;;;-0.21;71.38;101014.19;5141039;28;20501;-80
2022/01/14 08:18:14;;;;;;;100.65;40.97;;;;;;;0.15;70.39;101030.94;5141117;28;20078;-80
2022/01/14 08:21:04;;;;;;;109.18;43.85;;;;;;;0.02;70.93;101029.44;5141409;28;20109;-80
2022/01/14 08:23:55;;;;;;;89.35;37.58;;;;;;;0.03;70.89;101028.53;5150060;28;20053;-80
2022/01/14 08:26:44;;;;;;;98.40;40.65;;;;;;;0.16;70.12;101048.31;5151071;28;20041;-81
2022/01/14 08:29:35;;;;;;;82.40;35.38;;;;;;;0.09;70.74;101016.25;5161783;28;20106;-80
2022/01/14 08:32:25;;;;;;;153.02;57.22;;;;;;;0.30;70.08;101040.22;5142298;28;20580;-80
2022/01/14 08:35:16;;;;;;;83.28;36.22;;;;;;;0.47;70.96;101039.03;5154094;28;20045;-80
2022/01/14 08:38:06;;;;;;;120.75;46.75;;;;;;;0.49;70.82;101028.53;5154316;28;20049;-80
2022/01/14 08:40:57;;;;;;;103.38;42.88;;;;;;;0.57;70.39;101044.94;5153935;28;20102;-80
2022/01/14 08:43:47;;;;;;;90.60;38.45;;;;;;;0.54;70.77;101018.03;5144373;28;20070;-80
2022/01/14 08:46:38;;;;;;;70.40;33.92;;;;;;;0.67;70.80;101043.00;5137679;28;20067;-81
2022/01/14 08:49:28;;;;;;;80.22;35.03;;;;;;;0.76;70.19;101024.50;5165199;28;20062;-80
2022/01/14 08:52:22;;;;;;;83.60;38.10;;;;;;;0.85;70.56;101023.47;5154042;28;20401;-81
2022/01/14 08:55:14;;;;;;;84.97;37.92;;;;;;;0.91;70.17;101026.81;5132064;28;20334;-81
2022/01/14 08:58:06;;;;;;;75.47;35.60;;;;;;;1.05;69.79;101039.56;5153253;28;20062;-80
2022/01/14 09:00:56;;;;;;;80.57;37.05;;;;;;;1.04;70.65;101029.16;5148103;28;20050;-80
2022/01/14 09:03:48;;;;;;;71.43;33.72;;;;;;;1.03;70.20;100991.72;5147110;28;20090;-80
2022/01/14 09:06:38;;;;;;;70.05;35.13;;;;;;;1.28;70.40;101017.28;5151758;28;20054;-80
2022/01/14 09:09:28;;;;;;;75.38;34.88;;;;;;;1.77;69.22;101009.13;5155719;28;20561;-80
2022/01/14 09:12:18;;;;;;;75.32;34.50;;;;;;;2.01;68.52;101014.63;5164950;28;20519;-81
2022/01/14 09:15:09;;;;;;;68.57;33.42;;;;;;;2.23;67.49;101044.56;5140821;28;20061;-80
2022/01/14 09:17:59;;;;;;;66.07;35.42;;;;;;;2.19;68.92;101029.84;5124530;28;20106;-80
2022/01/14 09:20:49;;;;;;;68.32;33.28;;;;;;;2.47;67.73;101029.94;5150083;28;20184;-80
2022/01/14 09:23:39;;;;;;;83.53;36.83;;;;;;;3.01;66.40;101033.63;5141160;28;20061;-80
2022/01/14 09:26:32;;;;;;;70.57;35.17;;;;;;;2.66;66.42;100993.63;5137342;29;20106;-81
2022/01/14 09:29:22;;;;;;;75.38;34.28;;;;;;;2.50;67.53;101023.75;5146555;28;20051;-80
2022/01/14 09:32:12;;;;;;;61.63;32.08;;;;;;;2.69;66.48;101027.59;5173591;28;20043;-80
2022/01/14 09:35:06;;;;;;;65.22;31.90;;;;;;;2.28;67.95;101015.63;5143914;28;20106;-79
2022/01/14 09:37:56;;;;;;;66.88;32.03;;;;;;;2.54;67.11;101012.28;5124234;28;20039;-82
2022/01/14 09:40:49;;;;;;;71.35;32.60;;;;;;;2.56;67.03;101021.81;5116670;29;20050;-81
2022/01/14 09:43:40;;;;;;;63.28;32.88;;;;;;;2.63;67.00;101035.59;5136825;28;20070;-80
2022/01/14 09:46:30;;;;;;;68.45;33.53;;;;;;;2.66;67.09;101046.00;5130947;28;20629;-81
2022/01/14 09:49:21;;;;;;;69.55;33.58;;;;;;;2.44;67.91;101023.94;5165214;28;20062;-81
2022/01/14 09:52:16;;;;;;;59.97;32.40;;;;;;;2.88;65.57;101037.50;5137003;28;20125;-81
2022/01/14 09:55:07;;;;;;;70.95;32.92;;;;;;;2.78;66.68;101023.81;5146766;28;20521;-81
2022/01/14 09:57:58;;;;;;;60.50;31.00;;;;;;;2.72;65.90;101014.41;5126661;28;20050;-81
2022/01/14 10:00:48;;;;;;;65.63;33.47;;;;;;;2.80;65.15;100998.44;5131213;28;20127;-80
2022/01/14 10:03:52;;;;;;;73.45;33.20;;;;;;;3.11;65.91;101036.81;5147511;28;20246;-81
2022/01/14 10:06:45;;;;;;;65.35;32.30;;;;;;;3.02;65.89;101017.88;5142695;28;20674;-81
2022/01/14 10:09:38;;;;;;;66.00;31.27;;;;;;;3.23;64.93;101046.94;5141702;28;20058;-80
2022/01/14 10:12:33;;;;;;;62.65;31.15;;;;;;;3.24;65.24;101033.78;5128492;28;20463;-82
2022/01/14 10:15:23;;;;;;;60.05;31.20;;;;;;;2.82;66.28;100999.28;5145878;28;20054;-80
2022/01/14 10:18:15;;;;;;;56.80;30.25;;;;;;;3.19;65.43;101035.69;5136567;28;20135;-81
2022/01/14 10:21:07;;;;;;;69.72;30.30;;;;;;;3.20;64.84;101010.34;5131467;28;20075;-81
2022/01/14 10:23:59;;;;;;;65.07;31.40;;;;;;;3.28;65.44;101014.44;5112661;29;20625;-80
2022/01/14 10:26:57;;;;;;;65.65;31.83;;;;;;;3.10;65.90;100993.19;5126542;29;20094;-80
2022/01/14 10:29:47;;;;;;;63.88;32.80;;;;;;;3.26;65.58;101010.16;5120283;29;20133;-80
2022/01/14 10:32:38;;;;;;;60.50;31.77;;;;;;;3.21;64.64;100989.34;5141963;28;20122;-81
2022/01/14 10:35:33;;;;;;;63.60;31.02;;;;;;;3.37;64.40;101002.78;5127061;29;20057;-80
2022/01/14 10:38:26;;;;;;;64.53;31.42;;;;;;;3.40;63.85;100994.81;5127895;28;20133;-81
2022/01/14 10:41:18;;;;;;;60.55;30.88;;;;;;;3.46;63.87;100999.88;5109178;29;20055;-81
2022/01/14 10:44:29;;;;;;;59.75;32.33;;;;;;;3.62;63.71;101010.75;5143854;28;20515;-80
2022/01/14 10:47:23;;;;;;;64.63;32.08;;;;;;;3.57;64.29;100999.53;5131089;28;20054;-81
2022/01/14 10:50:13;;;;;;;52.30;25.02;;;;;;;3.69;64.30;101008.78;5132890;28;20069;-80
2022/01/14 10:53:09;;;;;;;71.65;33.03;;;;;;;3.79;64.50;101006.69;5121441;28;20058;-79
2022/01/14 10:56:08;;;;;;;69.20;36.17;;;;;;;3.69;64.87;100983.38;5154134;28;20046;-79
2022/01/14 10:58:59;;;;;;;66.95;34.85;;;;;;;3.92;63.52;100979.97;5125267;28;20530;-80
2022/01/14 11:01:50;;;;;;;63.38;32.63;;;;;;;4.09;63.09;100999.53;5138935;28;20536;-80
2022/01/14 11:05:07;;;;;;;71.47;32.85;;;;;;;3.86;62.68;100979.34;5151684;28;20521;-80
2022/01/14 11:07:57;;;;;;;59.65;33.13;;;;;;;3.98;62.85;100973.69;5146603;28;20150;-80
2022/01/14 11:10:48;;;;;;;65.15;33.35;;;;;;;3.18;63.36;100871.47;5137725;28;20130;-80
2022/01/14 11:13:38;;;;;;;69.85;34.03;;;;;;;4.00;63.37;100963.97;5148882;28;20058;-80
2022/01/14 11:16:29;;;;;;;62.10;34.30;;;;;;;4.27;63.85;100975.25;5140723;28;20042;-80
2022/01/14 11:19:20;;;;;;;72.63;35.90;;;;;;;4.51;63.13;100977.91;5138521;28;20126;-79
2022/01/14 11:25:21;;;;;;;69.90;32.45;;;;;;;4.34;63.10;100955.75;5140869;28;20456;-80
2022/01/14 11:28:15;;;;;;;73.95;35.28;;;;;;;4.44;63.65;100972.88;5144222;28;20080;-80
2022/01/14 11:31:23;;;;;;;73.95;41.47;;;;;;;4.66;63.65;100964.19;5133723;29;20066;-81
2022/01/14 11:34:34;;;;;;;69.13;34.13;;;;;;;4.67;63.04;100952.78;5131397;28;20053;-81
2022/01/14 11:37:33;;;;;;;88.43;45.33;;;;;;;5.10;62.47;100945.81;5142860;28;20063;-80
2022/01/14 11:40:24;;;;;;;70.45;35.97;;;;;;;5.28;60.76;100904.78;5146513;28;20043;-80
2022/01/14 11:43:54;;;;;;;61.05;31.70;;;;;;;5.33;61.09;100913.34;5151966;28;20099;-80
2022/01/14 11:46:47;;;;;;;60.13;32.33;;;;;;;5.50;61.00;100920.56;5115129;29;20072;-79
2022/01/14 11:49:38;;;;;;;65.57;33.97;;;;;;;5.42;59.94;100900.66;5102873;29;20135;-80
2022/01/14 11:52:35;;;;;;;62.65;32.90;;;;;;;5.25;61.79;100910.19;5138510;28;20102;-81
2022/01/14 11:55:34;;;;;;;56.50;30.70;;;;;;;5.33;60.82;100906.31;5146937;28;20133;-81
2022/01/14 11:58:25;;;;;;;57.60;30.30;;;;;;;5.30;60.84;100881.94;5138084;28;20136;-80
2022/01/14 12:01:33;;;;;;;75.95;41.00;;;;;;;5.25;61.13;100876.84;5149136;28;20521;-80
2022/01/14 12:05:01;;;;;;;63.58;32.58;;;;;;;5.77;60.82;100885.16;5139429;28;20055;-80
2022/01/14 12:08:01;;;;;;;60.67;32.42;;;;;;;6.17;58.85;100887.81;5164944;28;20049;-80
2022/01/14 12:10:54;;;;;;;55.47;29.73;;;;;;;5.94;60.42;100880.97;5127148;28;20050;-80
2022/01/14 12:13:59;;;;;;;50.50;28.02;;;;;;;5.77;60.37;100894.81;5147014;28;20050;-81
2022/01/14 12:17:10;;;;;;;68.68;35.22;;;;;;;5.77;60.69;100876.41;5150491;28;20046;-80
2022/01/14 12:20:06;;;;;;;62.03;30.30;;;;;;;5.83;60.55;100884.03;5142883;28;20117;-80
2022/01/14 12:23:09;;;;;;;51.03;28.20;;;;;;;5.84;60.35;100880.47;5140395;28;20092;-80
2022/01/14 12:26:13;;;;;;;59.40;29.75;;;;;;;5.80;59.52;100879.75;5129697;28;20057;-80
2022/01/14 12:29:13;;;;;;;67.97;33.53;;;;;;;5.87;60.02;100873.28;5166425;28;20047;-81
2022/01/14 12:32:10;;;;;;;67.32;30.90;;;;;;;6.04;59.47;100877.84;5138565;29;20054;-80
2022/01/14 12:35:08;;;;;;;62.30;30.92;;;;;;;6.10;59.14;100874.06;5135344;29;20062;-80
2022/01/14 12:38:00;;;;;;;67.97;34.13;;;;;;;6.26;59.35;100874.25;5177949;28;20196;-80
2022/01/14 12:40:50;;;;;;;70.20;36.33;;;;;;;6.23;58.46;100850.69;5137848;28;20110;-79
2022/01/14 12:43:56;;;;;;;52.45;29.25;;;;;;;6.25;58.87;100833.00;5137540;28;20055;-80
2022/01/14 12:46:53;;;;;;;57.22;28.50;;;;;;;6.09;59.04;100839.00;5147861;28;20506;-80
2022/01/14 12:49:44;;;;;;;57.92;29.50;;;;;;;6.15;59.65;100815.91;5138924;28;20049;-80
2022/01/14 12:52:50;;;;;;;48.95;26.73;;;;;;;6.32;57.83;100826.50;5169050;22;20048;-68
2022/01/14 12:55:40;;;;;;;53.78;26.35;;;;;;;6.49;57.20;100831.88;5176583;28;20068;-68
2022/01/14 12:58:49;;;;;;;54.45;27.98;;;;;;;6.47;57.58;100827.59;5174047;28;20097;-68
2022/01/14 13:01:43;;;;;;;61.03;30.33;;;;;;;6.45;58.60;100825.00;5145134;28;20101;-69
2022/01/14 13:04:33;;;;;;;49.37;28.97;;;;;;;6.52;58.49;100818.53;5156262;28;20049;-69
2022/01/14 13:07:27;;;;;;;56.30;30.50;;;;;;;6.45;59.01;100813.63;5157143;28;20763;-70
2022/01/14 13:10:18;;;;;;;;;;;;;;;6.41;58.67;100812.91;5154670;28;20125;-69
2022/01/14 13:13:09;;;;;;;58.92;29.83;;;;;;;6.51;57.77;100801.00;5160858;28;19984;-69
2022/01/14 13:16:05;;;;;;;47.17;26.98;;;;;;;6.47;58.07;100799.44;5159997;28;20053;-67
2022/01/14 13:18:55;;;;;;;53.22;26.88;;;;;;;6.46;58.92;100781.94;5160324;28;20124;-68
2022/01/14 13:21:45;;;;;;;44.80;26.38;;;;;;;6.68;58.13;100802.81;5157927;28;20054;-68
2022/01/14 13:24:38;;;;;;;51.95;27.88;;;;;;;6.78;57.44;100790.91;5157810;28;20054;-69
2022/01/14 13:27:35;;;;;;;52.17;27.92;;;;;;;6.51;59.39;100792.25;5160876;28;20404;-68
2022/01/14 13:30:37;;;;;;;59.42;32.53;;;;;;;6.54;58.99;100787.69;5157421;28;20066;-67
2022/01/14 13:33:27;;;;;;;57.13;30.13;;;;;;;6.58;58.48;100778.69;5150636;28;20092;-68
2022/01/14 13:36:18;;;;;;;47.05;26.27;;;;;;;6.56;58.33;100764.75;5151555;28;20062;-69